createdAt,value
2019-03-01T00:01:48.251Z,83.05
2019-03-01T00:07:57.175Z,82.93
2019-03-01T00:13:51.005Z,82.80
2019-03-01T00:19:54.549Z,82.77
2019-03-01T00:25:33.060Z,82.63
2019-03-01T00:31:06.996Z,82.65
2019-03-01T00:37:10.227Z,81.90
2019-03-01T00:43:20.529Z,81.68
2019-03-01T00:48:23.241Z,81.44
2019-03-01T00:53:25.956Z,81.24
2019-03-01T00:58:28.673Z,81.10
2019-03-01T01:03:31.653Z,80.97
2019-03-01T01:08:34.424Z,80.83
2019-03-01T01:13:37.154Z,80.55
2019-03-01T01:18:39.952Z,80.61
2019-03-01T01:23:42.659Z,80.73
2019-03-01T01:28:45.353Z,81.01
2019-03-01T01:33:48.111Z,81.14
2019-03-01T01:38:50.812Z,81.18
2019-03-01T01:43:53.538Z,81.05
2019-03-01T01:48:56.245Z,81.04
2019-03-01T01:53:58.975Z,81.04
2019-03-01T01:59:01.661Z,81.25
2019-03-01T02:04:04.370Z,81.59
2019-03-01T02:09:20.303Z,81.53
2019-03-01T02:14:23.191Z,81.84
2019-03-01T02:19:26.023Z,82.03
2019-03-01T02:24:28.724Z,82.13
2019-03-01T02:29:31.454Z,82.09
2019-03-01T02:34:34.220Z,81.94
2019-03-01T02:39:36.942Z,82.02
2019-03-01T02:44:39.711Z,81.90
2019-03-01T02:49:42.411Z,81.76
2019-03-01T02:54:45.127Z,81.72
2019-03-01T02:59:47.842Z,81.69
2019-03-01T03:04:50.580Z,82.02
2019-03-01T03:09:53.386Z,82.55
2019-03-01T03:14:56.131Z,82.91
2019-03-01T03:19:58.842Z,83.39
2019-03-01T03:25:01.550Z,83.62
2019-03-01T03:30:05.994Z,83.84
2019-03-01T03:35:08.745Z,83.84
2019-03-01T03:40:11.537Z,84.04
2019-03-01T03:45:14.531Z,84.06
2019-03-01T03:50:17.320Z,84.35
2019-03-01T03:55:20.059Z,84.35
2019-03-01T04:00:22.872Z,84.26
2019-03-01T04:05:25.563Z,84.36
2019-03-01T04:10:28.274Z,84.47
2019-03-01T04:15:31.375Z,84.62
2019-03-01T04:20:34.124Z,84.63
2019-03-01T04:25:36.858Z,84.72
2019-03-01T04:30:39.792Z,84.71
2019-03-01T04:35:42.528Z,84.73
2019-03-01T04:40:45.255Z,85.19
2019-03-01T04:45:47.984Z,85.33
2019-03-01T04:50:50.706Z,85.24
2019-03-01T04:55:53.479Z,85.46
2019-03-01T05:00:56.709Z,85.75
2019-03-01T05:05:59.426Z,85.76
2019-03-01T05:11:02.207Z,85.87
2019-03-01T05:26:39.587Z,86.74
2019-03-01T05:31:42.328Z,86.80
2019-03-01T05:36:45.066Z,86.62
2019-03-01T05:41:47.801Z,86.56
2019-03-01T05:46:50.551Z,86.46
2019-03-01T05:51:53.261Z,86.32
2019-03-01T05:56:55.995Z,86.27
2019-03-01T06:03:01.267Z,86.28
2019-03-01T06:08:48.000Z,86.12
2019-03-01T06:14:15.430Z,86.10
2019-03-01T06:19:49.453Z,86.21
2019-03-01T06:25:46.169Z,85.90
2019-03-01T06:32:05.661Z,86.23
2019-03-01T06:43:35.280Z,86.41
2019-03-01T06:48:46.699Z,86.53
2019-03-01T06:53:49.408Z,86.31
2019-03-01T06:58:58.786Z,86.11
2019-03-01T07:04:06.953Z,85.85
2019-03-01T07:09:09.654Z,85.87
2019-03-01T07:14:12.369Z,85.76
2019-03-01T07:19:15.064Z,85.76
2019-03-01T07:24:17.823Z,85.68
2019-03-01T07:29:20.576Z,85.54
2019-03-01T07:34:23.309Z,85.53
2019-03-01T07:39:26.020Z,85.58
2019-03-01T07:44:28.763Z,85.56
2019-03-01T07:49:31.478Z,85.44
2019-03-01T07:54:34.203Z,85.37
2019-03-01T07:59:38.096Z,85.68
2019-03-01T08:04:41.539Z,85.40
2019-03-01T08:09:44.744Z,85.24
2019-03-01T08:14:48.486Z,85.30
2019-03-01T08:19:54.753Z,85.42
2019-03-01T08:24:55.813Z,85.01
2019-03-01T08:29:58.513Z,85.18
2019-03-01T08:35:01.257Z,84.75
2019-03-01T08:40:05.962Z,84.83
2019-03-01T08:45:11.288Z,85.00
2019-03-01T08:50:15.080Z,84.84
2019-03-01T08:55:18.127Z,85.44
2019-03-01T09:00:26.801Z,85.78
2019-03-01T09:05:28.729Z,86.09
2019-03-01T09:10:32.719Z,85.93
2019-03-01T09:15:36.856Z,85.96
2019-03-01T09:20:39.750Z,86.84
2019-03-01T09:25:44.681Z,87.11
2019-03-01T09:30:47.080Z,86.70
2019-03-01T09:36:14.506Z,86.64
2019-03-01T09:41:16.404Z,86.42
2019-03-01T09:46:20.948Z,86.60
2019-03-01T09:51:23.725Z,85.78
2019-03-01T09:56:26.469Z,85.45
2019-03-01T10:01:29.183Z,85.06
2019-03-01T10:06:38.092Z,84.47
2019-03-01T10:11:36.551Z,84.70
2019-03-01T10:16:39.446Z,84.23
2019-03-01T10:21:42.151Z,84.52
2019-03-01T10:26:44.862Z,84.09
2019-03-01T10:31:47.586Z,84.01
2019-03-01T10:36:50.395Z,83.22
2019-03-01T10:41:53.107Z,82.75
2019-03-01T10:46:55.822Z,82.22
2019-03-01T10:51:58.633Z,81.63
2019-03-01T10:57:01.364Z,81.17
2019-03-01T11:02:04.194Z,81.06
2019-03-01T11:07:06.909Z,80.92
2019-03-01T11:12:10.443Z,80.04
2019-03-01T11:17:13.146Z,79.58
2019-03-01T11:22:15.861Z,79.36
2019-03-01T11:27:18.779Z,79.01
2019-03-01T11:32:21.518Z,77.81
2019-03-01T11:37:24.217Z,77.19
2019-03-01T11:42:26.938Z,77.54
2019-03-01T11:47:29.645Z,78.00
2019-03-01T11:52:32.359Z,78.31
2019-03-01T11:57:35.108Z,78.38
2019-03-01T12:02:37.865Z,77.73
2019-03-01T12:07:40.560Z,77.38
2019-03-01T12:12:43.276Z,77.92
2019-03-01T12:17:45.981Z,78.38
2019-03-01T12:22:48.704Z,78.82
2019-03-01T12:27:51.435Z,78.85
2019-03-01T12:32:54.181Z,79.32
2019-03-01T12:37:56.902Z,79.21
2019-03-01T12:42:59.658Z,78.44
2019-03-01T12:48:02.409Z,77.62
2019-03-01T12:53:05.156Z,77.14
2019-03-01T12:58:07.883Z,76.98
2019-03-01T13:03:10.621Z,76.50
2019-03-01T13:08:15.830Z,75.85
2019-03-01T13:13:18.007Z,75.27
2019-03-01T13:18:20.743Z,75.45
2019-03-01T13:23:23.461Z,74.59
2019-03-01T13:28:26.205Z,74.02
2019-03-01T13:33:28.963Z,74.32
2019-03-01T13:38:33.995Z,73.76
2019-03-01T13:43:36.306Z,73.73
2019-03-01T13:48:39.100Z,73.70
2019-03-01T13:53:49.026Z,73.79
2019-03-01T13:58:47.893Z,73.07
2019-03-01T14:03:51.164Z,72.51
2019-03-01T14:08:53.922Z,71.04
2019-03-01T14:13:56.694Z,69.40
2019-03-01T14:19:00.389Z,68.43
2019-03-01T14:24:03.209Z,67.38
2019-03-01T14:29:05.941Z,67.38
2019-03-01T14:34:11.591Z,67.52
2019-03-01T14:39:16.386Z,67.32
2019-03-01T14:44:19.110Z,67.57
2019-03-01T14:49:22.747Z,66.83
2019-03-01T14:54:25.542Z,66.52
2019-03-01T14:59:42.588Z,65.69
2019-03-01T15:04:45.300Z,65.26
2019-03-01T15:09:48.074Z,64.57
2019-03-01T15:14:51.166Z,63.71
2019-03-01T15:19:53.877Z,62.91
2019-03-01T15:24:56.596Z,61.95
2019-03-01T15:29:59.330Z,61.83
2019-03-01T15:35:03.916Z,62.34
2019-03-01T15:40:07.424Z,62.09
2019-03-01T15:45:10.335Z,62.03
2019-03-01T15:50:13.316Z,61.61
2019-03-01T15:55:16.741Z,61.97
2019-03-01T16:00:21.956Z,61.58
2019-03-01T16:05:24.733Z,61.14
2019-03-01T16:10:27.437Z,62.02
2019-03-01T16:15:30.168Z,63.52
2019-03-01T16:20:34.971Z,62.66
2019-03-01T16:25:37.693Z,62.30
2019-03-01T16:30:40.400Z,62.42
2019-03-01T16:35:43.111Z,62.73
2019-03-01T16:40:45.808Z,63.70
2019-03-01T16:45:48.529Z,63.89
2019-03-01T16:50:51.566Z,64.09
2019-03-01T16:55:54.782Z,64.28
2019-03-01T17:00:57.584Z,64.60
2019-03-01T17:06:00.271Z,64.68
2019-03-01T17:11:05.690Z,64.92
2019-03-01T17:16:09.253Z,64.89
2019-03-01T17:21:12.565Z,65.05
2019-03-01T17:26:16.945Z,65.71
2019-03-01T17:31:19.669Z,66.09
2019-03-01T17:36:22.375Z,66.69
2019-03-01T17:41:25.098Z,66.59
2019-03-01T17:46:29.782Z,67.36
2019-03-01T17:51:32.424Z,67.57
